createdAt,value
2022-08-26T00:02:34.161Z,21.00
2022-08-26T00:05:35.973Z,20.80
2022-08-26T00:08:38.833Z,20.60
2022-08-26T00:11:44.452Z,20.60
2022-08-26T00:14:46.437Z,20.60
2022-08-26T00:17:50.058Z,20.50
2022-08-26T00:20:51.825Z,20.60
2022-08-26T00:23:53.652Z,20.40
2022-08-26T00:26:55.384Z,20.50
2022-08-26T00:29:57.275Z,20.70
2022-08-26T00:33:00.311Z,20.60
2022-08-26T00:36:02.285Z,20.60
2022-08-26T00:39:06.900Z,20.90
2022-08-26T00:42:08.603Z,20.90
2022-08-26T00:45:11.809Z,21.00
2022-08-26T00:48:17.932Z,20.90
2022-08-26T00:51:23.165Z,21.00
2022-08-26T00:54:32.428Z,20.90
2022-08-26T00:57:35.661Z,20.90
2022-08-26T01:00:37.483Z,20.90
2022-08-26T01:03:41.645Z,20.70
2022-08-26T01:06:44.304Z,20.80
2022-08-26T01:09:46.868Z,20.80
2022-08-26T01:12:57.296Z,20.60
2022-08-26T01:16:02.509Z,20.80
2022-08-26T01:19:25.211Z,20.90
2022-08-26T01:22:45.408Z,20.90
2022-08-26T01:25:51.973Z,20.90
2022-08-26T01:28:56.609Z,20.90
2022-08-26T01:31:59.045Z,20.90
2022-08-26T01:35:01.527Z,20.90
2022-08-26T01:38:04.653Z,20.90
2022-08-26T01:41:19.614Z,20.80
2022-08-26T01:44:25.988Z,20.80
2022-08-26T01:47:31.386Z,20.60
2022-08-26T01:50:35.867Z,20.60
2022-08-26T01:53:39.401Z,20.60
2022-08-26T01:56:43.676Z,20.50
2022-08-26T01:59:46.952Z,20.60
2022-08-26T02:03:12.072Z,20.50
2022-08-26T02:06:14.933Z,20.30
2022-08-26T02:09:18.764Z,20.40
2022-08-26T02:12:22.784Z,20.40
2022-08-26T02:15:24.707Z,20.30
2022-08-26T02:18:29.673Z,20.30
2022-08-26T02:21:32.504Z,20.30
2022-08-26T02:24:54.729Z,20.40
2022-08-26T02:27:56.849Z,20.20
2022-08-26T02:30:58.600Z,20.20
2022-08-26T02:34:15.242Z,20.30
2022-08-26T02:37:17.630Z,20.10
2022-08-26T02:40:25.468Z,20.10
2022-08-26T02:43:31.403Z,20.00
2022-08-26T02:46:35.077Z,20.10
2022-08-26T02:49:42.008Z,20.00
2022-08-26T02:52:46.228Z,20.00
2022-08-26T02:55:49.413Z,20.00
2022-08-26T02:58:51.742Z,20.00
2022-08-26T03:01:56.088Z,20.10
2022-08-26T03:05:01.964Z,20.10
2022-08-26T03:08:04.628Z,19.90
2022-08-26T03:11:06.317Z,19.90
2022-08-26T03:14:08.414Z,19.90
2022-08-26T03:17:10.137Z,19.90
2022-08-26T03:20:13.682Z,19.90
2022-08-26T03:23:17.417Z,19.90
2022-08-26T03:26:20.677Z,20.00
2022-08-26T03:29:42.095Z,19.80
2022-08-26T03:32:44.467Z,19.90
2022-08-26T03:35:47.966Z,19.80
2022-08-26T03:38:52.545Z,19.60
2022-08-26T03:41:55.356Z,19.80
2022-08-26T03:44:57.121Z,19.70
2022-08-26T03:47:59.386Z,19.80
2022-08-26T03:51:03.163Z,19.80
2022-08-26T03:54:06.030Z,19.70
2022-08-26T03:57:10.025Z,19.70
2022-08-26T04:00:18.427Z,19.60
2022-08-26T04:03:40.409Z,19.60
2022-08-26T04:06:43.418Z,19.60
2022-08-26T04:09:46.552Z,19.70
2022-08-26T04:12:48.486Z,19.70
2022-08-26T04:15:50.547Z,19.80
2022-08-26T04:18:52.830Z,19.80
2022-08-26T04:21:54.614Z,19.80
2022-08-26T04:24:56.581Z,19.90
2022-08-26T04:27:58.338Z,19.90
2022-08-26T04:31:00.170Z,20.00
2022-08-26T04:34:02.830Z,20.00
2022-08-26T04:37:05.616Z,20.00
2022-08-26T04:40:09.896Z,20.00
2022-08-26T04:43:11.933Z,20.10
2022-08-26T04:46:18.435Z,20.00
2022-08-26T04:49:21.133Z,20.00
2022-08-26T04:52:23.283Z,20.00
2022-08-26T04:55:38.486Z,20.10
2022-08-26T04:58:41.855Z,20.10
2022-08-26T05:01:45.913Z,20.10
2022-08-26T05:04:48.314Z,20.20
2022-08-26T05:07:53.632Z,20.20
2022-08-26T05:10:55.990Z,20.20
2022-08-26T05:14:01.623Z,20.20
2022-08-26T05:17:04.219Z,20.20
2022-08-26T05:20:06.837Z,20.20
2022-08-26T05:23:08.995Z,20.30
2022-08-26T05:26:10.849Z,20.30
2022-08-26T05:29:13.872Z,20.30
2022-08-26T05:32:15.573Z,20.30
2022-08-26T05:35:17.927Z,20.30
2022-08-26T05:38:21.615Z,20.40
2022-08-26T05:41:34.171Z,20.50
2022-08-26T05:44:55.503Z,20.50
2022-08-26T05:47:57.892Z,20.50
2022-08-26T05:51:06.418Z,20.50
2022-08-26T05:54:08.717Z,20.50
2022-08-26T05:57:13.752Z,20.50
2022-08-26T06:00:16.071Z,20.60
2022-08-26T06:03:17.822Z,20.50
2022-08-26T06:06:27.790Z,20.60
2022-08-26T06:09:30.773Z,20.60
2022-08-26T06:12:33.688Z,20.80
2022-08-26T06:15:38.654Z,20.80
2022-08-26T06:18:45.717Z,20.80
2022-08-26T06:21:51.339Z,20.80
2022-08-26T06:25:14.819Z,20.70
2022-08-26T06:28:17.230Z,20.70
2022-08-26T06:31:19.851Z,20.70
2022-08-26T06:34:23.234Z,20.80
2022-08-26T06:37:31.328Z,20.80
2022-08-26T06:40:50.457Z,20.80
2022-08-26T06:43:52.359Z,20.80
2022-08-26T06:46:54.283Z,20.90
2022-08-26T06:49:56.470Z,20.80
2022-08-26T06:52:58.388Z,20.80
2022-08-26T06:56:07.291Z,20.80
2022-08-26T06:59:12.553Z,20.80
2022-08-26T07:02:15.074Z,20.90
2022-08-26T07:05:19.583Z,21.00
2022-08-26T07:08:22.371Z,21.10
2022-08-26T07:11:24.068Z,21.10
2022-08-26T07:14:26.541Z,21.10
2022-08-26T07:17:28.471Z,21.20
2022-08-26T07:20:30.247Z,21.10
2022-08-26T07:23:32.820Z,21.00
2022-08-26T07:26:35.170Z,21.00
2022-08-26T07:29:39.491Z,21.10
2022-08-26T07:32:41.851Z,21.20
2022-08-26T07:35:44.755Z,21.30
2022-08-26T07:38:48.085Z,21.20
2022-08-26T07:41:50.908Z,21.30
2022-08-26T07:44:52.634Z,21.40
2022-08-26T07:47:54.707Z,21.40
2022-08-26T07:50:56.431Z,21.50
2022-08-26T07:53:58.619Z,21.50
2022-08-26T07:57:00.415Z,21.50
2022-08-26T08:00:12.759Z,21.50
2022-08-26T08:03:15.179Z,21.50
2022-08-26T08:06:17.928Z,21.50
2022-08-26T08:09:19.777Z,21.40
2022-08-26T08:12:24.128Z,21.50
2022-08-26T08:15:29.795Z,21.40
2022-08-26T08:18:31.812Z,21.40
2022-08-26T08:21:33.547Z,21.50
2022-08-26T08:24:35.489Z,21.50
2022-08-26T08:27:38.803Z,21.40
2022-08-26T08:30:41.693Z,21.50
2022-08-26T08:33:43.421Z,21.50
2022-08-26T08:36:46.206Z,21.40
2022-08-26T08:39:48.979Z,21.40
2022-08-26T08:43:06.092Z,21.30
2022-08-26T08:46:12.730Z,21.40
2022-08-26T08:49:15.248Z,21.30
2022-08-26T08:52:29.415Z,21.20
2022-08-26T08:55:55.918Z,21.20
2022-08-26T08:59:19.557Z,21.40
2022-08-26T09:02:51.073Z,21.20
2022-08-26T09:05:54.565Z,21.30
2022-08-26T09:08:57.527Z,21.20
2022-08-26T09:12:01.626Z,21.40
2022-08-26T09:15:11.216Z,21.50
2022-08-26T09:18:34.458Z,21.70
2022-08-26T09:21:36.245Z,21.90
2022-08-26T09:24:48.471Z,21.90
2022-08-26T09:27:53.449Z,22.00
2022-08-26T09:31:14.071Z,22.10
2022-08-26T09:34:27.628Z,22.00
2022-08-26T09:41:05.124Z,22.20
2022-08-26T09:44:09.789Z,22.20
2022-08-26T09:47:32.061Z,22.10
2022-08-26T09:50:54.756Z,22.20
2022-08-26T09:54:01.790Z,22.30
2022-08-26T09:57:26.976Z,22.10
2022-08-26T10:00:40.325Z,22.10
2022-08-26T10:03:42.934Z,22.10
2022-08-26T10:06:57.535Z,22.20
2022-08-26T10:09:59.895Z,22.20
2022-08-26T10:13:09.444Z,22.20
2022-08-26T10:16:22.131Z,22.20
2022-08-26T10:19:41.743Z,22.40
2022-08-26T10:23:14.095Z,22.40
2022-08-26T10:26:24.283Z,22.50
2022-08-26T10:29:34.144Z,22.50
2022-08-26T10:32:41.687Z,22.50
2022-08-26T10:35:57.469Z,22.50
2022-08-26T10:39:04.429Z,22.60
2022-08-26T10:42:21.949Z,22.60
2022-08-26T10:45:27.581Z,22.70
2022-08-26T10:48:41.925Z,22.70
2022-08-26T10:52:12.358Z,22.80
2022-08-26T10:55:49.119Z,22.80
2022-08-26T10:59:20.510Z,22.80
2022-08-26T11:02:31.369Z,22.90
2022-08-26T11:05:33.296Z,23.00
2022-08-26T11:08:34.994Z,22.90
2022-08-26T11:11:39.739Z,22.90
2022-08-26T11:14:53.629Z,22.80
2022-08-26T11:18:01.917Z,22.90
2022-08-26T11:21:16.359Z,23.10
2022-08-26T11:24:52.317Z,23.10
2022-08-26T11:27:58.230Z,23.20
2022-08-26T11:30:59.948Z,23.30
2022-08-26T11:34:03.493Z,23.30
2022-08-26T11:37:15.554Z,23.30
2022-08-26T11:40:26.702Z,23.30
2022-08-26T11:43:29.872Z,23.40
2022-08-26T11:46:35.682Z,23.40
2022-08-26T11:49:37.908Z,23.40
2022-08-26T11:52:39.712Z,23.50
2022-08-26T11:55:44.816Z,23.60
2022-08-26T11:58:49.878Z,23.70
2022-08-26T12:01:53.930Z,23.60
2022-08-26T12:04:56.729Z,23.60
2022-08-26T12:08:11.932Z,23.50
2022-08-26T12:11:23.442Z,23.50
2022-08-26T12:14:27.663Z,23.60
2022-08-26T12:17:29.923Z,23.60
2022-08-26T12:20:46.212Z,23.60
2022-08-26T12:23:50.830Z,23.60
2022-08-26T12:27:18.357Z,23.50
2022-08-26T12:30:24.530Z,23.50
2022-08-26T12:33:28.742Z,23.40
2022-08-26T12:36:38.891Z,23.40
2022-08-26T12:39:44.454Z,23.50
2022-08-26T12:42:46.697Z,23.60
2022-08-26T12:45:57.662Z,23.60
2022-08-26T12:49:01.675Z,23.50
2022-08-26T12:52:04.923Z,23.50
2022-08-26T12:55:19.119Z,23.60
2022-08-26T12:58:28.942Z,23.70
2022-08-26T13:01:38.930Z,23.60
2022-08-26T13:04:42.715Z,23.70
2022-08-26T13:07:44.483Z,23.60
2022-08-26T13:10:47.666Z,23.60
2022-08-26T13:13:52.547Z,23.70
2022-08-26T13:16:55.260Z,23.80
2022-08-26T13:20:03.316Z,23.70
2022-08-26T13:23:05.687Z,23.90
2022-08-26T13:26:07.508Z,23.80
2022-08-26T13:29:10.771Z,23.80
2022-08-26T13:32:12.968Z,23.80
2022-08-26T13:35:14.773Z,23.80
2022-08-26T13:38:20.575Z,23.90
2022-08-26T13:41:36.180Z,24.00
2022-08-26T13:44:38.951Z,24.00
2022-08-26T13:47:40.649Z,24.10
2022-08-26T13:50:42.355Z,24.10
2022-08-26T13:53:44.373Z,24.00
2022-08-26T13:56:46.100Z,24.00
2022-08-26T13:59:47.803Z,23.80
2022-08-26T14:02:49.776Z,23.70
2022-08-26T14:05:53.276Z,23.70
2022-08-26T14:08:55.034Z,23.80
2022-08-26T14:11:58.128Z,23.90
2022-08-26T14:15:00.693Z,23.80
2022-08-26T14:18:05.025Z,23.70
2022-08-26T14:21:10.920Z,23.70
2022-08-26T14:24:12.657Z,23.50
2022-08-26T14:27:14.795Z,23.50
2022-08-26T14:30:17.301Z,23.60
2022-08-26T14:33:23.312Z,23.50
2022-08-26T14:36:33.896Z,23.60
2022-08-26T14:39:35.777Z,23.40
2022-08-26T14:42:37.496Z,23.30
2022-08-26T14:48:49.310Z,23.20
2022-08-26T14:51:51.036Z,23.40
2022-08-26T14:54:54.833Z,23.20
2022-08-26T14:57:57.111Z,23.30
2022-08-26T15:00:59.725Z,23.30
2022-08-26T15:04:06.128Z,23.40
2022-08-26T15:07:12.733Z,23.40
2022-08-26T15:10:16.740Z,23.30
2022-08-26T15:13:18.425Z,23.30
2022-08-26T15:16:20.692Z,23.20
2022-08-26T15:19:24.354Z,23.10
2022-08-26T15:22:26.572Z,23.00
2022-08-26T15:25:31.663Z,22.80
2022-08-26T15:28:33.363Z,22.90
2022-08-26T15:31:35.487Z,22.90
2022-08-26T15:34:37.653Z,22.80
2022-08-26T15:37:39.455Z,22.70
2022-08-26T15:40:41.376Z,22.60
2022-08-26T15:43:43.206Z,22.40
2022-08-26T15:46:46.929Z,22.40
2022-08-26T15:49:48.799Z,22.50
2022-08-26T15:52:50.833Z,22.40
2022-08-26T15:55:56.442Z,22.40
2022-08-26T15:58:59.056Z,22.40
2022-08-26T16:02:01.786Z,22.30
2022-08-26T16:05:03.831Z,22.30
2022-08-26T16:08:07.534Z,22.30
2022-08-26T16:11:09.470Z,22.30
2022-08-26T16:14:11.295Z,22.30
2022-08-26T16:17:13.124Z,22.30
2022-08-26T16:20:16.805Z,22.20
2022-08-26T16:23:18.838Z,22.20
2022-08-26T16:26:26.722Z,22.20
2022-08-26T16:29:28.472Z,22.20
2022-08-26T16:32:31.330Z,22.20
2022-08-26T16:35:33.453Z,22.20
2022-08-26T16:38:37.483Z,22.10
2022-08-26T16:41:39.651Z,22.20
2022-08-26T16:44:44.460Z,22.20
2022-08-26T16:47:47.823Z,22.10
2022-08-26T16:50:50.521Z,22.10
2022-08-26T16:53:53.736Z,22.00
2022-08-26T16:56:55.507Z,22.10
2022-08-26T16:59:57.579Z,22.00
2022-08-26T17:03:01.002Z,22.10
2022-08-26T17:06:03.143Z,22.00
2022-08-26T17:09:04.988Z,21.90
2022-08-26T17:12:06.990Z,21.80
2022-08-26T17:15:09.511Z,21.90
2022-08-26T17:18:12.042Z,21.80
2022-08-26T17:21:14.154Z,21.90
2022-08-26T17:24:16.021Z,21.70
2022-08-26T17:27:17.794Z,21.80
2022-08-26T17:30:20.965Z,21.70
2022-08-26T17:33:25.252Z,21.70
2022-08-26T17:36:28.404Z,21.60
2022-08-26T17:39:30.241Z,21.70
2022-08-26T17:42:32.017Z,21.70
2022-08-26T17:45:38.408Z,21.70
2022-08-26T17:48:41.097Z,21.70
2022-08-26T17:51:42.853Z,21.70
2022-08-26T17:54:44.552Z,21.60
2022-08-26T17:57:53.191Z,21.70
2022-08-26T18:00:55.518Z,21.70
2022-08-26T18:04:00.358Z,21.80
2022-08-26T18:07:02.959Z,21.70
2022-08-26T18:10:07.395Z,21.70
2022-08-26T18:13:11.490Z,21.60
2022-08-26T18:16:13.394Z,21.50
2022-08-26T18:19:15.125Z,21.60
2022-08-26T18:22:16.839Z,21.50
2022-08-26T18:25:18.913Z,21.40
2022-08-26T18:28:20.843Z,21.30
2022-08-26T18:31:23.166Z,21.40
2022-08-26T18:34:24.970Z,21.30
2022-08-26T18:37:34.189Z,21.20
2022-08-26T18:40:38.431Z,21.20
2022-08-26T18:43:40.165Z,21.20
2022-08-26T18:46:42.617Z,21.20
2022-08-26T18:49:46.109Z,21.20
2022-08-26T18:52:47.848Z,21.10
2022-08-26T18:55:49.567Z,21.10
2022-08-26T18:58:51.561Z,21.10
2022-08-26T19:01:53.559Z,21.10
2022-08-26T19:04:55.437Z,21.00
2022-08-26T19:07:57.288Z,20.90
2022-08-26T19:10:59.873Z,20.90
2022-08-26T19:14:02.295Z,20.90
2022-08-26T19:17:04.635Z,20.80
2022-08-26T19:20:07.388Z,20.80
2022-08-26T19:23:21.561Z,20.80
2022-08-26T19:26:31.907Z,20.70
2022-08-26T19:29:35.635Z,20.70
2022-08-26T19:32:37.451Z,20.60
2022-08-26T19:35:39.204Z,20.50
2022-08-26T19:38:41.568Z,20.60
2022-08-26T19:41:44.007Z,20.50
2022-08-26T19:45:04.140Z,20.50
2022-08-26T19:48:06.080Z,20.60
2022-08-26T19:51:07.915Z,20.50
2022-08-26T19:54:09.660Z,20.20
2022-08-26T19:57:11.687Z,20.30
2022-08-26T20:00:16.301Z,20.40
2022-08-26T20:03:18.078Z,20.30
2022-08-26T20:06:20.393Z,20.30
2022-08-26T20:09:22.224Z,20.20
2022-08-26T20:12:24.754Z,20.10
2022-08-26T20:15:28.544Z,20.10
2022-08-26T20:18:49.783Z,20.10
2022-08-26T20:21:51.503Z,19.90
2022-08-26T20:24:53.933Z,19.90
2022-08-26T20:27:55.608Z,19.90
2022-08-26T20:30:57.399Z,20.00
2022-08-26T20:33:59.143Z,19.90
2022-08-26T20:37:01.959Z,19.80
2022-08-26T20:40:04.731Z,19.70
2022-08-26T20:43:06.781Z,19.70
2022-08-26T20:46:17.270Z,19.80
2022-08-26T20:49:20.945Z,19.60
2022-08-26T20:52:22.764Z,19.50
2022-08-26T20:55:26.298Z,19.50
2022-08-26T20:58:28.281Z,19.60
2022-08-26T21:01:34.638Z,19.70
2022-08-26T21:04:36.623Z,19.60
2022-08-26T21:07:39.299Z,19.60
2022-08-26T21:10:41.025Z,19.40
2022-08-26T21:14:03.985Z,19.20
2022-08-26T21:17:04.881Z,19.00
2022-08-26T21:20:07.343Z,19.10
2022-08-26T21:23:09.053Z,19.10
2022-08-26T21:26:13.589Z,19.10
2022-08-26T21:29:15.375Z,19.10
2022-08-26T21:32:17.273Z,19.00
2022-08-26T21:35:19.309Z,19.00
2022-08-26T21:38:21.780Z,18.90
2022-08-26T21:41:24.920Z,18.80
2022-08-26T21:44:26.684Z,18.90
2022-08-26T21:47:28.765Z,18.80
2022-08-26T21:50:30.535Z,18.80
2022-08-26T21:53:32.317Z,18.70
2022-08-26T21:56:39.547Z,18.80
2022-08-26T21:59:41.317Z,18.80
2022-08-26T22:02:43.101Z,18.70
2022-08-26T22:05:46.381Z,18.70
2022-08-26T22:08:48.729Z,18.70
2022-08-26T22:11:51.639Z,18.70
2022-08-26T22:14:53.840Z,18.70
2022-08-26T22:17:55.557Z,18.70
2022-08-26T22:21:05.715Z,18.70
2022-08-26T22:24:08.550Z,18.60
2022-08-26T22:27:11.937Z,18.50
2022-08-26T22:30:13.837Z,18.50
2022-08-26T22:33:16.703Z,18.40
2022-08-26T22:36:20.951Z,18.40
2022-08-26T22:39:25.120Z,18.30
2022-08-26T22:42:27.069Z,18.40
2022-08-26T22:45:31.254Z,18.40
2022-08-26T22:48:33.143Z,18.40
2022-08-26T22:51:34.996Z,18.30
2022-08-26T22:54:36.752Z,18.20
2022-08-26T22:57:38.981Z,18.20
2022-08-26T23:00:42.130Z,18.30
2022-08-26T23:03:45.111Z,18.30
2022-08-26T23:06:47.500Z,18.20
2022-08-26T23:09:49.734Z,18.20
2022-08-26T23:12:52.371Z,18.10
2022-08-26T23:16:02.267Z,18.20
2022-08-26T23:19:04.944Z,18.20
2022-08-26T23:22:06.859Z,18.20
2022-08-26T23:25:10.549Z,18.30
2022-08-26T23:28:13.047Z,18.00
2022-08-26T23:31:14.830Z,18.10
2022-08-26T23:34:35.412Z,18.20
2022-08-26T23:37:42.250Z,18.00
2022-08-26T23:40:44.003Z,18.00
2022-08-26T23:43:45.738Z,18.00
2022-08-26T23:46:47.510Z,18.00
2022-08-26T23:49:49.285Z,18.00
2022-08-26T23:53:05.997Z,18.00
2022-08-26T23:56:14.876Z,18.00
2022-08-26T23:59:16.616Z,18.10
